createdAt,value
2019-01-17T00:04:21.227Z,8.80
2019-01-17T00:09:40.607Z,8.80
2019-01-17T00:15:11.488Z,8.90
2019-01-17T00:20:42.040Z,8.90
2019-01-17T00:26:12.726Z,8.90
2019-01-17T00:31:43.564Z,8.80
2019-01-17T00:37:03.943Z,8.80
2019-01-17T00:42:36.665Z,8.80
2019-01-17T00:48:04.830Z,8.80
2019-01-17T00:53:15.562Z,8.80
2019-01-17T00:58:45.655Z,8.80
2019-01-17T01:04:04.692Z,8.80
2019-01-17T01:09:26.635Z,8.80
2019-01-17T01:14:56.218Z,8.80
2019-01-17T01:20:19.083Z,8.80
2019-01-17T01:25:47.582Z,8.70
2019-01-17T01:31:06.692Z,8.60
2019-01-17T01:36:40.739Z,8.60
2019-01-17T01:42:14.499Z,8.60
2019-01-17T01:47:45.323Z,8.60
2019-01-17T01:53:13.867Z,8.60
2019-01-17T01:58:25.900Z,8.60
2019-01-17T02:03:37.811Z,8.60
2019-01-17T02:08:49.654Z,8.60
2019-01-17T02:14:01.620Z,8.60
2019-01-17T02:19:13.212Z,8.60
2019-01-17T02:24:28.458Z,8.60
2019-01-17T02:29:38.519Z,8.60
2019-01-17T02:34:50.419Z,8.50
2019-01-17T02:40:02.416Z,8.50
2019-01-17T02:45:14.496Z,8.50
2019-01-17T02:50:26.385Z,8.50
2019-01-17T02:55:38.288Z,8.60
2019-01-17T03:00:50.053Z,8.60
2019-01-17T03:06:02.232Z,8.60
2019-01-17T03:11:14.990Z,8.60
2019-01-17T03:16:26.688Z,8.70
2019-01-17T03:21:38.679Z,8.80
2019-01-17T03:26:50.595Z,8.80
2019-01-17T03:32:02.477Z,8.80
2019-01-17T03:37:14.236Z,8.80
2019-01-17T03:42:26.298Z,8.70
2019-01-17T03:47:37.774Z,8.70
2019-01-17T03:52:49.262Z,8.70
2019-01-17T03:58:01.181Z,8.70
2019-01-17T04:03:12.807Z,8.70
2019-01-17T04:08:24.646Z,8.80
2019-01-17T04:13:36.722Z,8.80
2019-01-17T04:18:48.394Z,8.80
2019-01-17T04:24:00.434Z,8.80
2019-01-17T04:29:12.186Z,8.70
2019-01-17T04:34:23.927Z,8.70
2019-01-17T04:39:35.733Z,8.70
2019-01-17T04:44:47.619Z,8.70
2019-01-17T04:49:59.531Z,8.60
2019-01-17T04:55:10.879Z,8.60
2019-01-17T05:00:22.706Z,8.50
2019-01-17T05:05:34.751Z,8.50
2019-01-17T05:10:45.966Z,8.50
2019-01-17T05:15:57.199Z,8.50
2019-01-17T05:21:09.068Z,8.60
2019-01-17T05:26:21.076Z,8.50
2019-01-17T05:31:32.255Z,8.60
2019-01-17T05:36:43.474Z,8.60
2019-01-17T05:41:54.986Z,8.60
2019-01-17T05:47:06.147Z,8.60
2019-01-17T05:52:18.266Z,8.50
2019-01-17T05:57:30.307Z,8.50
2019-01-17T06:02:42.006Z,8.50
2019-01-17T06:07:51.934Z,8.50
2019-01-17T06:13:11.294Z,8.50
2019-01-17T06:18:22.590Z,8.50
2019-01-17T06:23:34.646Z,8.50
2019-01-17T06:28:46.646Z,8.40
2019-01-17T06:33:58.311Z,8.40
2019-01-17T06:39:09.487Z,8.50
2019-01-17T06:44:21.313Z,8.50
2019-01-17T06:49:33.376Z,8.50
2019-01-17T06:54:45.179Z,8.50
2019-01-17T06:59:56.618Z,8.50
2019-01-17T07:05:08.274Z,8.50
2019-01-17T07:10:19.579Z,8.40
2019-01-17T07:15:30.849Z,8.40
2019-01-17T07:20:42.551Z,8.40
2019-01-17T07:25:54.866Z,8.30
2019-01-17T07:31:06.890Z,8.30
2019-01-17T07:36:18.537Z,8.40
2019-01-17T07:41:29.851Z,8.40
2019-01-17T07:46:41.630Z,8.40
2019-01-17T07:51:52.819Z,8.40
2019-01-17T07:57:04.722Z,8.40
2019-01-17T08:02:16.762Z,8.40
2019-01-17T08:07:28.298Z,8.50
2019-01-17T08:12:40.706Z,8.40
2019-01-17T08:17:51.957Z,8.40
2019-01-17T08:23:03.847Z,8.30
2019-01-17T08:28:17.503Z,8.30
2019-01-17T08:33:29.618Z,8.30
2019-01-17T08:38:41.693Z,8.40
2019-01-17T08:43:53.755Z,8.40
2019-01-17T08:49:05.886Z,8.30
2019-01-17T08:54:17.842Z,8.30
2019-01-17T08:59:29.574Z,8.40
2019-01-17T09:04:41.598Z,8.40
2019-01-17T09:09:53.682Z,8.50
2019-01-17T09:15:05.724Z,8.40
2019-01-17T09:20:17.131Z,8.40
2019-01-17T09:25:29.195Z,8.40
2019-01-17T09:30:41.407Z,8.50
2019-01-17T09:35:53.402Z,8.60
2019-01-17T09:41:05.291Z,8.60
2019-01-17T09:46:16.778Z,8.60
2019-01-17T09:51:31.486Z,8.60
2019-01-17T09:56:43.419Z,8.50
2019-01-17T10:01:54.842Z,8.50
2019-01-17T10:07:06.086Z,8.50
2019-01-17T10:12:17.586Z,8.60
2019-01-17T10:17:29.342Z,8.70
2019-01-17T10:22:40.630Z,8.60
2019-01-17T10:27:51.907Z,8.70
2019-01-17T10:33:04.015Z,8.70
2019-01-17T10:38:15.782Z,8.60
2019-01-17T10:43:27.438Z,8.70
2019-01-17T10:48:39.559Z,8.80
2019-01-17T10:53:51.678Z,8.80
2019-01-17T10:59:04.457Z,8.80
2019-01-17T11:04:16.479Z,8.80
2019-01-17T11:09:28.439Z,8.80
2019-01-17T11:14:40.026Z,8.70
2019-01-17T11:19:52.066Z,8.80
2019-01-17T11:25:03.634Z,8.80
2019-01-17T11:30:15.587Z,8.80
2019-01-17T11:35:27.474Z,8.90
2019-01-17T11:40:38.747Z,8.90
2019-01-17T11:45:50.658Z,8.90
2019-01-17T11:51:02.542Z,8.90
2019-01-17T11:56:14.002Z,8.90
2019-01-17T12:01:27.403Z,8.90
2019-01-17T12:06:37.358Z,9.00
2019-01-17T12:11:56.238Z,9.00
2019-01-17T12:17:07.830Z,9.00
2019-01-17T12:22:19.758Z,9.10
2019-01-17T12:27:31.319Z,9.10
2019-01-17T12:32:43.503Z,9.20
2019-01-17T12:37:55.713Z,9.20
2019-01-17T12:43:06.940Z,9.20
2019-01-17T12:48:19.142Z,9.30
2019-01-17T12:53:31.173Z,9.20
2019-01-17T12:58:43.058Z,9.30
2019-01-17T13:03:55.049Z,9.20
2019-01-17T13:09:07.090Z,9.30
2019-01-17T13:14:17.027Z,9.30
2019-01-17T13:19:36.226Z,9.40
2019-01-17T13:24:47.778Z,9.40
2019-01-17T13:30:03.664Z,9.40
2019-01-17T13:35:17.309Z,9.40
2019-01-17T13:40:28.896Z,9.40
2019-01-17T13:45:40.831Z,9.40
2019-01-17T13:50:52.701Z,9.40
2019-01-17T13:56:04.307Z,9.50
2019-01-17T14:01:15.602Z,9.50
2019-01-17T14:06:27.614Z,9.40
2019-01-17T14:11:39.582Z,9.40
2019-01-17T14:16:51.727Z,9.30
2019-01-17T14:22:03.982Z,9.20
2019-01-17T14:27:15.609Z,9.20
2019-01-17T14:32:27.528Z,9.20
2019-01-17T14:37:39.449Z,9.20
2019-01-17T14:42:50.851Z,9.10
2019-01-17T14:48:02.083Z,9.10
2019-01-17T14:53:13.538Z,9.10
2019-01-17T14:58:25.426Z,9.10
2019-01-17T15:03:37.391Z,9.10
2019-01-17T15:08:48.330Z,9.00
2019-01-17T15:14:07.203Z,9.00
2019-01-17T15:19:18.954Z,9.00
2019-01-17T15:24:31.834Z,8.90
2019-01-17T15:29:43.782Z,8.80
2019-01-17T15:34:55.542Z,8.80
2019-01-17T15:40:07.197Z,8.80
2019-01-17T15:45:19.775Z,8.70
2019-01-17T15:50:31.902Z,8.70
2019-01-17T15:55:44.122Z,8.70
2019-01-17T16:00:55.942Z,8.70
2019-01-17T16:06:07.795Z,8.70
2019-01-17T16:11:19.414Z,8.60
2019-01-17T16:16:31.429Z,8.50
2019-01-17T16:21:42.779Z,8.50
2019-01-17T16:26:55.196Z,8.50
2019-01-17T16:32:07.095Z,8.50
2019-01-17T16:37:18.614Z,8.40
2019-01-17T16:42:29.878Z,8.50
2019-01-17T16:47:41.874Z,8.40
2019-01-17T16:52:53.091Z,8.30
2019-01-17T16:58:04.870Z,8.30
2019-01-17T17:03:16.978Z,8.20
2019-01-17T17:08:28.993Z,8.10
2019-01-17T17:13:41.118Z,8.10
2019-01-17T17:18:52.627Z,8.10
2019-01-17T17:24:04.514Z,8.00
2019-01-17T17:29:15.806Z,8.00
2019-01-17T17:34:27.494Z,8.00
2019-01-17T17:39:39.315Z,8.00
2019-01-17T17:44:50.577Z,8.00
2019-01-17T17:50:02.242Z,8.00
2019-01-17T17:55:14.618Z,8.00
2019-01-17T18:00:30.694Z,7.90
2019-01-17T18:05:42.574Z,7.80
2019-01-17T18:10:54.575Z,7.70
2019-01-17T18:16:06.714Z,7.60
2019-01-17T18:21:18.904Z,7.60
2019-01-17T18:26:30.554Z,7.60
2019-01-17T18:31:42.337Z,7.60
2019-01-17T18:36:53.690Z,7.60
2019-01-17T18:42:04.938Z,7.50
2019-01-17T18:47:16.676Z,7.60
2019-01-17T18:52:26.636Z,7.60
2019-01-17T18:57:46.554Z,7.60
2019-01-17T19:02:56.854Z,7.60
2019-01-17T19:08:15.810Z,7.60
2019-01-17T19:13:27.799Z,7.60
2019-01-17T19:18:39.770Z,7.50
2019-01-17T19:23:51.362Z,7.50
2019-01-17T19:29:03.038Z,7.40
2019-01-17T19:34:15.219Z,7.40
2019-01-17T19:39:26.618Z,7.20
2019-01-17T19:44:38.585Z,7.30
2019-01-17T19:49:50.066Z,7.20
2019-01-17T19:55:01.425Z,7.20
2019-01-17T20:00:14.025Z,7.20
2019-01-17T20:05:25.318Z,7.10
2019-01-17T20:10:37.259Z,7.20
2019-01-17T20:15:49.323Z,7.00
2019-01-17T20:21:00.859Z,7.10
2019-01-17T20:26:13.030Z,7.20
2019-01-17T20:31:25.115Z,7.20
2019-01-17T20:36:35.062Z,7.30
2019-01-17T20:41:46.987Z,7.30
2019-01-17T20:46:56.914Z,7.20
2019-01-17T20:52:09.002Z,7.10
2019-01-17T20:57:21.238Z,7.10
2019-01-17T21:02:32.506Z,7.10
2019-01-17T21:07:43.886Z,7.10
2019-01-17T21:12:43.710Z,7.10
2019-01-17T21:17:55.516Z,7.00
2019-01-17T21:23:07.654Z,6.90
2019-01-17T21:28:17.593Z,7.00
2019-01-17T21:33:29.631Z,7.10
2019-01-17T21:38:41.646Z,7.10
2019-01-17T21:43:54.835Z,7.10
2019-01-17T21:49:07.148Z,6.90
2019-01-17T21:54:19.631Z,6.60
2019-01-17T21:59:31.277Z,6.50
2019-01-17T22:04:43.069Z,6.40
2019-01-17T22:10:01.396Z,6.30
2019-01-17T22:15:07.722Z,6.10
2019-01-17T22:20:20.749Z,5.90
2019-01-17T22:25:32.698Z,5.80
2019-01-17T22:30:44.066Z,5.60
2019-01-17T22:35:57.046Z,5.40
2019-01-17T22:41:08.596Z,5.40
2019-01-17T22:46:20.410Z,5.60
2019-01-17T22:51:32.362Z,5.70
2019-01-17T22:56:44.358Z,5.90
2019-01-17T23:01:55.694Z,6.10
2019-01-17T23:07:08.035Z,6.20
2019-01-17T23:12:19.866Z,6.20
2019-01-17T23:17:32.753Z,6.40
2019-01-17T23:22:44.903Z,6.40
2019-01-17T23:27:56.784Z,6.40
2019-01-17T23:33:08.637Z,6.40
2019-01-17T23:38:20.192Z,6.30
2019-01-17T23:43:32.222Z,6.40
2019-01-17T23:48:44.085Z,6.40
2019-01-17T23:53:55.766Z,6.50
2019-01-17T23:59:07.038Z,6.40
